sensor_id;sensor_type;location;lat;lon;timestamp;temperature;humidity
37886;DHT22;23726;52.520;13.434;2022-08-03T00:01:20;26.80;40.90
37886;DHT22;23726;52.520;13.434;2022-08-03T00:03:46;26.80;40.60
37886;DHT22;23726;52.520;13.434;2022-08-03T00:06:11;26.80;40.70
37886;DHT22;23726;52.520;13.434;2022-08-03T00:08:38;26.80;40.70
37886;DHT22;23726;52.520;13.434;2022-08-03T00:11:03;26.80;41.00
37886;DHT22;23726;52.520;13.434;2022-08-03T00:13:31;26.80;41.00
37886;DHT22;23726;52.520;13.434;2022-08-03T00:15:57;26.80;41.30
37886;DHT22;23726;52.520;13.434;2022-08-03T00:18:23;26.80;40.80
37886;DHT22;23726;52.520;13.434;2022-08-03T00:20:48;26.80;40.80
37886;DHT22;23726;52.520;13.434;2022-08-03T00:23:14;26.80;40.80
37886;DHT22;23726;52.520;13.434;2022-08-03T00:25:41;26.80;40.80
37886;DHT22;23726;52.520;13.434;2022-08-03T00:28:10;26.80;40.90
37886;DHT22;23726;52.520;13.434;2022-08-03T00:30:36;26.80;40.90
37886;DHT22;23726;52.520;13.434;2022-08-03T00:33:02;26.80;40.80
37886;DHT22;23726;52.520;13.434;2022-08-03T00:35:29;26.80;40.90
37886;DHT22;23726;52.520;13.434;2022-08-03T00:37:55;26.80;40.90
37886;DHT22;23726;52.520;13.434;2022-08-03T00:40:22;26.80;41.00
37886;DHT22;23726;52.520;13.434;2022-08-03T00:42:53;26.80;40.90
37886;DHT22;23726;52.520;13.434;2022-08-03T00:45:20;26.80;41.00
37886;DHT22;23726;52.520;13.434;2022-08-03T00:47:46;26.80;41.10
37886;DHT22;23726;52.520;13.434;2022-08-03T00:50:15;26.80;41.20
37886;DHT22;23726;52.520;13.434;2022-08-03T00:52:40;26.80;41.50
37886;DHT22;23726;52.520;13.434;2022-08-03T00:55:06;26.80;41.30
37886;DHT22;23726;52.520;13.434;2022-08-03T00:57:33;26.80;41.20
37886;DHT22;23726;52.520;13.434;2022-08-03T00:59:59;26.80;41.20
37886;DHT22;23726;52.520;13.434;2022-08-03T01:02:26;26.80;41.20
37886;DHT22;23726;52.520;13.434;2022-08-03T01:04:52;26.80;41.30
37886;DHT22;23726;52.520;13.434;2022-08-03T01:10:22;26.80;41.70
37886;DHT22;23726;52.520;13.434;2022-08-03T01:18:41;26.70;41.80
37886;DHT22;23726;52.520;13.434;2022-08-03T01:21:15;26.70;41.70
37886;DHT22;23726;52.520;13.434;2022-08-03T01:27:02;26.70;41.60
37886;DHT22;23726;52.520;13.434;2022-08-03T01:32:00;26.70;41.70
37886;DHT22;23726;52.520;13.434;2022-08-03T01:34:31;26.70;41.60
37886;DHT22;23726;52.520;13.434;2022-08-03T01:37:00;26.70;41.50
37886;DHT22;23726;52.520;13.434;2022-08-03T01:39:28;26.70;41.50
37886;DHT22;23726;52.520;13.434;2022-08-03T01:41:58;26.70;41.50
37886;DHT22;23726;52.520;13.434;2022-08-03T01:44:29;26.70;41.60
37886;DHT22;23726;52.520;13.434;2022-08-03T01:47:00;26.70;41.40
37886;DHT22;23726;52.520;13.434;2022-08-03T01:49:29;26.70;41.50
37886;DHT22;23726;52.520;13.434;2022-08-03T01:51:56;26.70;41.50
37886;DHT22;23726;52.520;13.434;2022-08-03T01:54:24;26.70;41.50
37886;DHT22;23726;52.520;13.434;2022-08-03T01:56:51;26.70;41.50
37886;DHT22;23726;52.520;13.434;2022-08-03T01:59:19;26.70;41.60
37886;DHT22;23726;52.520;13.434;2022-08-03T02:01:47;26.70;41.90
37886;DHT22;23726;52.520;13.434;2022-08-03T02:04:16;26.70;41.50
37886;DHT22;23726;52.520;13.434;2022-08-03T02:06:44;26.70;41.40
37886;DHT22;23726;52.520;13.434;2022-08-03T02:09:12;26.70;41.60
37886;DHT22;23726;52.520;13.434;2022-08-03T02:11:50;26.70;41.50
37886;DHT22;23726;52.520;13.434;2022-08-03T02:14:18;26.70;41.50
37886;DHT22;23726;52.520;13.434;2022-08-03T02:16:44;26.70;41.40
37886;DHT22;23726;52.520;13.434;2022-08-03T02:19:10;26.70;41.50
37886;DHT22;23726;52.520;13.434;2022-08-03T02:21:36;26.70;41.40
37886;DHT22;23726;52.520;13.434;2022-08-03T02:24:03;26.70;41.30
37886;DHT22;23726;52.520;13.434;2022-08-03T02:26:31;26.70;41.30
37886;DHT22;23726;52.520;13.434;2022-08-03T02:29:09;26.70;41.30
37886;DHT22;23726;52.520;13.434;2022-08-03T02:31:36;26.70;41.30
37886;DHT22;23726;52.520;13.434;2022-08-03T02:34:07;26.70;41.20
37886;DHT22;23726;52.520;13.434;2022-08-03T02:36:36;26.70;41.60
37886;DHT22;23726;52.520;13.434;2022-08-03T02:39:03;26.70;41.20
37886;DHT22;23726;52.520;13.434;2022-08-03T02:41:35;26.70;41.30
37886;DHT22;23726;52.520;13.434;2022-08-03T02:44:06;26.70;41.50
37886;DHT22;23726;52.520;13.434;2022-08-03T02:46:34;26.70;41.20
37886;DHT22;23726;52.520;13.434;2022-08-03T02:49:01;26.70;41.60
37886;DHT22;23726;52.520;13.434;2022-08-03T02:51:30;26.70;41.60
37886;DHT22;23726;52.520;13.434;2022-08-03T02:53:57;26.70;41.00
37886;DHT22;23726;52.520;13.434;2022-08-03T02:56:29;26.70;41.80
37886;DHT22;23726;52.520;13.434;2022-08-03T02:58:55;26.70;41.50
37886;DHT22;23726;52.520;13.434;2022-08-03T03:01:23;26.70;41.60
37886;DHT22;23726;52.520;13.434;2022-08-03T03:03:51;26.60;41.00
37886;DHT22;23726;52.520;13.434;2022-08-03T03:06:18;26.60;41.00
37886;DHT22;23726;52.520;13.434;2022-08-03T03:08:45;26.60;41.40
37886;DHT22;23726;52.520;13.434;2022-08-03T03:11:12;26.70;41.10
37886;DHT22;23726;52.520;13.434;2022-08-03T03:13:41;26.70;41.00
37886;DHT22;23726;52.520;13.434;2022-08-03T03:16:08;26.70;40.80
37886;DHT22;23726;52.520;13.434;2022-08-03T03:18:35;26.70;40.80
37886;DHT22;23726;52.520;13.434;2022-08-03T03:21:03;26.70;40.90
37886;DHT22;23726;52.520;13.434;2022-08-03T03:23:37;26.70;41.10
37886;DHT22;23726;52.520;13.434;2022-08-03T03:26:03;26.70;41.00
37886;DHT22;23726;52.520;13.434;2022-08-03T03:28:32;26.70;40.70
37886;DHT22;23726;52.520;13.434;2022-08-03T03:30:58;26.60;40.70
37886;DHT22;23726;52.520;13.434;2022-08-03T03:33:25;26.60;40.70
37886;DHT22;23726;52.520;13.434;2022-08-03T03:35:51;26.60;40.70
37886;DHT22;23726;52.520;13.434;2022-08-03T03:38:17;26.70;40.80
37886;DHT22;23726;52.520;13.434;2022-08-03T03:40:43;26.60;40.70
37886;DHT22;23726;52.520;13.434;2022-08-03T03:43:10;26.70;40.80
37886;DHT22;23726;52.520;13.434;2022-08-03T03:45:36;26.60;40.80
37886;DHT22;23726;52.520;13.434;2022-08-03T03:48:07;26.70;40.90
37886;DHT22;23726;52.520;13.434;2022-08-03T03:50:33;26.70;40.90
37886;DHT22;23726;52.520;13.434;2022-08-03T03:53:00;26.60;40.90
37886;DHT22;23726;52.520;13.434;2022-08-03T03:55:25;26.60;41.10
37886;DHT22;23726;52.520;13.434;2022-08-03T03:57:52;26.60;41.10
37886;DHT22;23726;52.520;13.434;2022-08-03T04:00:18;26.60;41.10
37886;DHT22;23726;52.520;13.434;2022-08-03T04:02:44;26.60;41.10
37886;DHT22;23726;52.520;13.434;2022-08-03T04:05:11;26.60;41.10
37886;DHT22;23726;52.520;13.434;2022-08-03T04:08:25;26.60;41.00
37886;DHT22;23726;52.520;13.434;2022-08-03T04:13:56;26.60;41.20
37886;DHT22;23726;52.520;13.434;2022-08-03T04:16:25;26.60;41.20
37886;DHT22;23726;52.520;13.434;2022-08-03T04:18:56;26.60;41.20
37886;DHT22;23726;52.520;13.434;2022-08-03T04:21:24;26.60;41.30
37886;DHT22;23726;52.520;13.434;2022-08-03T04:23:54;26.60;41.30
37886;DHT22;23726;52.520;13.434;2022-08-03T04:26:21;26.60;41.30
37886;DHT22;23726;52.520;13.434;2022-08-03T04:28:48;26.60;41.40
37886;DHT22;23726;52.520;13.434;2022-08-03T04:31:16;26.60;41.40
37886;DHT22;23726;52.520;13.434;2022-08-03T04:33:43;26.60;41.40
37886;DHT22;23726;52.520;13.434;2022-08-03T04:36:13;26.60;41.30
37886;DHT22;23726;52.520;13.434;2022-08-03T04:39:03;26.60;41.30
37886;DHT22;23726;52.520;13.434;2022-08-03T04:41:30;26.60;41.30
37886;DHT22;23726;52.520;13.434;2022-08-03T04:43:58;26.60;41.30
37886;DHT22;23726;52.520;13.434;2022-08-03T04:46:27;26.60;41.40
37886;DHT22;23726;52.520;13.434;2022-08-03T04:51:01;26.60;41.40
37886;DHT22;23726;52.520;13.434;2022-08-03T04:53:31;26.60;41.50
37886;DHT22;23726;52.520;13.434;2022-08-03T04:56:07;26.60;42.10
37886;DHT22;23726;52.520;13.434;2022-08-03T04:58:33;26.60;41.50
37886;DHT22;23726;52.520;13.434;2022-08-03T05:00:58;26.60;41.40
37886;DHT22;23726;52.520;13.434;2022-08-03T05:03:24;26.60;41.40
37886;DHT22;23726;52.520;13.434;2022-08-03T05:05:51;26.60;41.50
37886;DHT22;23726;52.520;13.434;2022-08-03T05:08:16;26.60;41.50
37886;DHT22;23726;52.520;13.434;2022-08-03T05:10:42;26.60;41.40
37886;DHT22;23726;52.520;13.434;2022-08-03T05:13:07;26.60;41.60
37886;DHT22;23726;52.520;13.434;2022-08-03T05:15:37;26.60;41.60
37886;DHT22;23726;52.520;13.434;2022-08-03T05:18:03;26.60;41.60
37886;DHT22;23726;52.520;13.434;2022-08-03T05:20:28;26.60;41.30
37886;DHT22;23726;52.520;13.434;2022-08-03T05:22:54;26.60;41.30
37886;DHT22;23726;52.520;13.434;2022-08-03T05:25:19;26.60;41.80
37886;DHT22;23726;52.520;13.434;2022-08-03T05:27:45;26.60;41.40
37886;DHT22;23726;52.520;13.434;2022-08-03T05:30:10;26.60;41.40
37886;DHT22;23726;52.520;13.434;2022-08-03T05:32:36;26.70;41.80
37886;DHT22;23726;52.520;13.434;2022-08-03T05:35:04;26.60;41.90
37886;DHT22;23726;52.520;13.434;2022-08-03T05:37:30;26.60;41.60
37886;DHT22;23726;52.520;13.434;2022-08-03T05:39:55;26.60;41.60
37886;DHT22;23726;52.520;13.434;2022-08-03T05:42:23;26.60;41.60
37886;DHT22;23726;52.520;13.434;2022-08-03T05:44:49;26.70;41.60
37886;DHT22;23726;52.520;13.434;2022-08-03T05:47:14;26.60;42.00
37886;DHT22;23726;52.520;13.434;2022-08-03T05:49:40;26.60;42.10
37886;DHT22;23726;52.520;13.434;2022-08-03T05:52:06;26.60;41.90
37886;DHT22;23726;52.520;13.434;2022-08-03T05:54:32;26.60;41.80
37886;DHT22;23726;52.520;13.434;2022-08-03T05:56:58;26.60;41.50
37886;DHT22;23726;52.520;13.434;2022-08-03T05:59:23;26.60;42.00
37886;DHT22;23726;52.520;13.434;2022-08-03T06:01:50;26.70;42.10
37886;DHT22;23726;52.520;13.434;2022-08-03T06:04:15;26.60;42.10
37886;DHT22;23726;52.520;13.434;2022-08-03T06:06:41;26.60;41.90
37886;DHT22;23726;52.520;13.434;2022-08-03T06:09:08;26.70;41.80
37886;DHT22;23726;52.520;13.434;2022-08-03T06:11:35;26.60;42.00
37886;DHT22;23726;52.520;13.434;2022-08-03T06:14:00;26.60;42.10
37886;DHT22;23726;52.520;13.434;2022-08-03T06:16:26;26.60;42.00
37886;DHT22;23726;52.520;13.434;2022-08-03T06:18:52;26.50;41.90
37886;DHT22;23726;52.520;13.434;2022-08-03T06:21:17;26.50;41.80
37886;DHT22;23726;52.520;13.434;2022-08-03T06:23:44;26.50;41.80
37886;DHT22;23726;52.520;13.434;2022-08-03T06:26:10;26.50;41.70
37886;DHT22;23726;52.520;13.434;2022-08-03T06:28:35;26.50;41.70
37886;DHT22;23726;52.520;13.434;2022-08-03T06:31:01;26.50;41.60
37886;DHT22;23726;52.520;13.434;2022-08-03T06:33:27;26.50;41.70
37886;DHT22;23726;52.520;13.434;2022-08-03T06:35:53;26.50;41.60
37886;DHT22;23726;52.520;13.434;2022-08-03T06:38:18;26.60;41.60
37886;DHT22;23726;52.520;13.434;2022-08-03T06:40:45;26.60;41.40
37886;DHT22;23726;52.520;13.434;2022-08-03T06:43:11;26.60;41.50
37886;DHT22;23726;52.520;13.434;2022-08-03T06:45:38;26.60;41.50
37886;DHT22;23726;52.520;13.434;2022-08-03T06:48:10;26.60;41.40
37886;DHT22;23726;52.520;13.434;2022-08-03T06:50:37;26.60;41.30
37886;DHT22;23726;52.520;13.434;2022-08-03T06:53:03;26.60;41.30
37886;DHT22;23726;52.520;13.434;2022-08-03T06:55:29;26.60;41.30
37886;DHT22;23726;52.520;13.434;2022-08-03T06:57:55;26.60;41.30
37886;DHT22;23726;52.520;13.434;2022-08-03T07:00:22;26.50;41.20
37886;DHT22;23726;52.520;13.434;2022-08-03T07:02:47;26.50;41.30
37886;DHT22;23726;52.520;13.434;2022-08-03T07:05:14;26.50;41.10
37886;DHT22;23726;52.520;13.434;2022-08-03T07:07:40;26.50;41.30
37886;DHT22;23726;52.520;13.434;2022-08-03T07:10:07;26.60;41.20
37886;DHT22;23726;52.520;13.434;2022-08-03T07:12:34;26.60;41.40
37886;DHT22;23726;52.520;13.434;2022-08-03T07:15:01;26.60;41.10
37886;DHT22;23726;52.520;13.434;2022-08-03T07:17:30;26.60;41.40
37886;DHT22;23726;52.520;13.434;2022-08-03T07:19:56;26.60;41.40
37886;DHT22;23726;52.520;13.434;2022-08-03T07:22:22;26.60;41.20
37886;DHT22;23726;52.520;13.434;2022-08-03T07:24:47;26.60;41.30
37886;DHT22;23726;52.520;13.434;2022-08-03T07:27:15;26.70;41.50
37886;DHT22;23726;52.520;13.434;2022-08-03T07:29:42;26.70;41.40
37886;DHT22;23726;52.520;13.434;2022-08-03T07:32:07;26.60;41.20
37886;DHT22;23726;52.520;13.434;2022-08-03T07:34:33;26.60;41.30
37886;DHT22;23726;52.520;13.434;2022-08-03T07:36:58;26.60;41.10
37886;DHT22;23726;52.520;13.434;2022-08-03T07:39:24;26.60;41.20
37886;DHT22;23726;52.520;13.434;2022-08-03T07:41:49;26.60;40.80
37886;DHT22;23726;52.520;13.434;2022-08-03T07:44:17;26.70;41.30
37886;DHT22;23726;52.520;13.434;2022-08-03T07:46:43;26.70;41.40
37886;DHT22;23726;52.520;13.434;2022-08-03T07:49:08;26.70;41.20
37886;DHT22;23726;52.520;13.434;2022-08-03T07:51:34;26.80;41.30
37886;DHT22;23726;52.520;13.434;2022-08-03T07:54:00;26.80;41.30
37886;DHT22;23726;52.520;13.434;2022-08-03T07:56:26;26.80;41.20
37886;DHT22;23726;52.520;13.434;2022-08-03T07:58:52;26.80;41.20
37886;DHT22;23726;52.520;13.434;2022-08-03T08:01:18;26.80;41.30
37886;DHT22;23726;52.520;13.434;2022-08-03T08:03:45;26.90;41.40
37886;DHT22;23726;52.520;13.434;2022-08-03T08:06:10;26.90;41.40
37886;DHT22;23726;52.520;13.434;2022-08-03T08:08:37;26.90;41.40
37886;DHT22;23726;52.520;13.434;2022-08-03T08:11:04;26.90;41.40
37886;DHT22;23726;52.520;13.434;2022-08-03T08:13:29;26.90;41.40
37886;DHT22;23726;52.520;13.434;2022-08-03T08:15:55;26.90;41.50
37886;DHT22;23726;52.520;13.434;2022-08-03T08:18:21;26.90;41.50
37886;DHT22;23726;52.520;13.434;2022-08-03T08:20:46;26.90;41.50
37886;DHT22;23726;52.520;13.434;2022-08-03T08:23:12;27.00;41.60
37886;DHT22;23726;52.520;13.434;2022-08-03T08:25:37;27.00;41.60
37886;DHT22;23726;52.520;13.434;2022-08-03T08:28:03;27.00;41.70
37886;DHT22;23726;52.520;13.434;2022-08-03T08:30:30;27.00;41.70
37886;DHT22;23726;52.520;13.434;2022-08-03T08:32:56;27.00;41.70
37886;DHT22;23726;52.520;13.434;2022-08-03T08:35:22;27.00;41.70
37886;DHT22;23726;52.520;13.434;2022-08-03T08:37:48;27.00;41.70
37886;DHT22;23726;52.520;13.434;2022-08-03T08:40:14;27.00;41.70
37886;DHT22;23726;52.520;13.434;2022-08-03T08:42:41;27.00;41.80
37886;DHT22;23726;52.520;13.434;2022-08-03T08:45:08;27.00;41.80
37886;DHT22;23726;52.520;13.434;2022-08-03T08:47:39;27.00;41.80
37886;DHT22;23726;52.520;13.434;2022-08-03T08:50:06;27.00;41.90
37886;DHT22;23726;52.520;13.434;2022-08-03T08:52:37;27.00;41.90
37886;DHT22;23726;52.520;13.434;2022-08-03T08:55:06;27.10;42.00
37886;DHT22;23726;52.520;13.434;2022-08-03T08:57:38;27.10;42.00
37886;DHT22;23726;52.520;13.434;2022-08-03T09:00:07;27.00;42.00
37886;DHT22;23726;52.520;13.434;2022-08-03T09:02:35;27.10;42.10
37886;DHT22;23726;52.520;13.434;2022-08-03T09:05:02;27.10;42.00
37886;DHT22;23726;52.520;13.434;2022-08-03T09:07:28;27.00;42.00
37886;DHT22;23726;52.520;13.434;2022-08-03T09:09:54;27.10;42.00
37886;DHT22;23726;52.520;13.434;2022-08-03T09:12:19;27.10;42.10
37886;DHT22;23726;52.520;13.434;2022-08-03T09:14:45;27.10;42.10
37886;DHT22;23726;52.520;13.434;2022-08-03T09:17:10;27.10;42.10
37886;DHT22;23726;52.520;13.434;2022-08-03T09:19:36;27.10;42.10
37886;DHT22;23726;52.520;13.434;2022-08-03T09:24:36;27.10;42.10
37886;DHT22;23726;52.520;13.434;2022-08-03T09:27:05;27.10;42.20
37886;DHT22;23726;52.520;13.434;2022-08-03T09:29:35;27.10;42.20
37886;DHT22;23726;52.520;13.434;2022-08-03T09:32:02;27.10;42.10
37886;DHT22;23726;52.520;13.434;2022-08-03T09:34:29;27.10;42.20
37886;DHT22;23726;52.520;13.434;2022-08-03T09:36:55;27.10;42.70
37886;DHT22;23726;52.520;13.434;2022-08-03T09:39:24;27.10;42.20
37886;DHT22;23726;52.520;13.434;2022-08-03T09:42:12;27.10;42.20
37886;DHT22;23726;52.520;13.434;2022-08-03T09:44:40;27.10;42.20
37886;DHT22;23726;52.520;13.434;2022-08-03T09:47:07;27.10;42.20
37886;DHT22;23726;52.520;13.434;2022-08-03T09:49:34;27.10;42.20
37886;DHT22;23726;52.520;13.434;2022-08-03T09:52:10;27.10;42.20
37886;DHT22;23726;52.520;13.434;2022-08-03T09:54:35;27.10;42.20
37886;DHT22;23726;52.520;13.434;2022-08-03T09:57:01;27.10;42.20
37886;DHT22;23726;52.520;13.434;2022-08-03T09:59:28;27.10;42.80
37886;DHT22;23726;52.520;13.434;2022-08-03T10:01:56;27.10;42.30
37886;DHT22;23726;52.520;13.434;2022-08-03T10:04:22;27.10;42.30
37886;DHT22;23726;52.520;13.434;2022-08-03T10:07:06;27.20;42.30
37886;DHT22;23726;52.520;13.434;2022-08-03T10:09:33;27.20;42.40
37886;DHT22;23726;52.520;13.434;2022-08-03T10:12:09;27.20;42.40
37886;DHT22;23726;52.520;13.434;2022-08-03T10:14:37;27.10;42.30
37886;DHT22;23726;52.520;13.434;2022-08-03T10:17:04;27.20;42.40
37886;DHT22;23726;52.520;13.434;2022-08-03T10:19:30;27.20;42.40
37886;DHT22;23726;52.520;13.434;2022-08-03T10:21:59;27.20;42.40
37886;DHT22;23726;52.520;13.434;2022-08-03T10:24:27;27.10;42.30
37886;DHT22;23726;52.520;13.434;2022-08-03T10:27:03;27.10;42.30
37886;DHT22;23726;52.520;13.434;2022-08-03T10:29:34;27.10;42.40
37886;DHT22;23726;52.520;13.434;2022-08-03T10:32:03;27.10;42.40
37886;DHT22;23726;52.520;13.434;2022-08-03T10:34:33;27.20;42.40
37886;DHT22;23726;52.520;13.434;2022-08-03T10:37:00;27.20;42.40
37886;DHT22;23726;52.520;13.434;2022-08-03T10:39:28;27.10;42.50
37886;DHT22;23726;52.520;13.434;2022-08-03T10:41:54;27.10;42.50
37886;DHT22;23726;52.520;13.434;2022-08-03T10:44:25;27.10;42.50
37886;DHT22;23726;52.520;13.434;2022-08-03T10:46:52;27.20;42.60
37886;DHT22;23726;52.520;13.434;2022-08-03T10:49:19;27.20;42.50
37886;DHT22;23726;52.520;13.434;2022-08-03T10:51:47;27.20;42.50
37886;DHT22;23726;52.520;13.434;2022-08-03T10:54:38;27.20;42.50
37886;DHT22;23726;52.520;13.434;2022-08-03T10:57:46;27.20;42.50
37886;DHT22;23726;52.520;13.434;2022-08-03T11:00:13;27.10;42.50
37886;DHT22;23726;52.520;13.434;2022-08-03T11:03:16;27.20;42.60
37886;DHT22;23726;52.520;13.434;2022-08-03T11:05:47;27.10;42.60
37886;DHT22;23726;52.520;13.434;2022-08-03T11:08:25;27.10;42.50
37886;DHT22;23726;52.520;13.434;2022-08-03T11:10:54;27.20;42.70
37886;DHT22;23726;52.520;13.434;2022-08-03T11:13:23;27.10;42.60
37886;DHT22;23726;52.520;13.434;2022-08-03T11:15:51;27.20;42.60
37886;DHT22;23726;52.520;13.434;2022-08-03T11:18:17;27.10;42.50
37886;DHT22;23726;52.520;13.434;2022-08-03T11:20:51;27.20;42.60
37886;DHT22;23726;52.520;13.434;2022-08-03T11:23:45;27.20;42.60
37886;DHT22;23726;52.520;13.434;2022-08-03T11:26:18;27.20;42.60
37886;DHT22;23726;52.520;13.434;2022-08-03T11:28:47;27.20;42.60
37886;DHT22;23726;52.520;13.434;2022-08-03T11:34:06;27.20;42.50
37886;DHT22;23726;52.520;13.434;2022-08-03T11:39:42;27.20;42.50
37886;DHT22;23726;52.520;13.434;2022-08-03T11:44:58;27.20;42.50
37886;DHT22;23726;52.520;13.434;2022-08-03T11:47:26;27.20;42.40
37886;DHT22;23726;52.520;13.434;2022-08-03T11:49:56;27.20;42.40
37886;DHT22;23726;52.520;13.434;2022-08-03T11:52:24;27.20;42.50
37886;DHT22;23726;52.520;13.434;2022-08-03T11:54:51;27.20;42.70
37886;DHT22;23726;52.520;13.434;2022-08-03T11:57:33;27.20;42.60
37886;DHT22;23726;52.520;13.434;2022-08-03T12:00:03;27.20;42.60
37886;DHT22;23726;52.520;13.434;2022-08-03T12:03:03;27.20;42.70
37886;DHT22;23726;52.520;13.434;2022-08-03T12:05:42;27.20;42.90
37886;DHT22;23726;52.520;13.434;2022-08-03T12:08:11;27.20;42.90
37886;DHT22;23726;52.520;13.434;2022-08-03T12:10:39;27.20;43.00
37886;DHT22;23726;52.520;13.434;2022-08-03T12:13:06;27.20;43.00
37886;DHT22;23726;52.520;13.434;2022-08-03T12:15:37;27.20;43.10
37886;DHT22;23726;52.520;13.434;2022-08-03T12:18:12;27.20;43.10
37886;DHT22;23726;52.520;13.434;2022-08-03T12:20:39;27.20;43.10
37886;DHT22;23726;52.520;13.434;2022-08-03T12:23:07;27.20;43.10
37886;DHT22;23726;52.520;13.434;2022-08-03T12:25:34;27.20;43.10
37886;DHT22;23726;52.520;13.434;2022-08-03T12:28:18;27.20;43.00
37886;DHT22;23726;52.520;13.434;2022-08-03T12:30:46;27.20;43.00
37886;DHT22;23726;52.520;13.434;2022-08-03T12:33:22;27.20;42.90
37886;DHT22;23726;52.520;13.434;2022-08-03T12:36:01;27.20;42.80
37886;DHT22;23726;52.520;13.434;2022-08-03T12:38:27;27.20;42.80
37886;DHT22;23726;52.520;13.434;2022-08-03T12:40:59;27.30;42.70
37886;DHT22;23726;52.520;13.434;2022-08-03T12:43:25;27.30;42.70
37886;DHT22;23726;52.520;13.434;2022-08-03T12:46:05;27.30;42.60
37886;DHT22;23726;52.520;13.434;2022-08-03T12:48:30;27.30;42.60
37886;DHT22;23726;52.520;13.434;2022-08-03T12:51:07;27.30;42.50
37886;DHT22;23726;52.520;13.434;2022-08-03T12:53:33;27.30;42.20
37886;DHT22;23726;52.520;13.434;2022-08-03T12:56:04;27.30;42.10
37886;DHT22;23726;52.520;13.434;2022-08-03T12:58:33;27.30;42.00
37886;DHT22;23726;52.520;13.434;2022-08-03T13:00:59;27.30;42.10
37886;DHT22;23726;52.520;13.434;2022-08-03T13:03:24;27.30;42.10
37886;DHT22;23726;52.520;13.434;2022-08-03T13:05:50;27.30;42.00
37886;DHT22;23726;52.520;13.434;2022-08-03T13:08:23;27.30;41.90
37886;DHT22;23726;52.520;13.434;2022-08-03T13:10:49;27.30;41.80
37886;DHT22;23726;52.520;13.434;2022-08-03T13:13:15;27.30;41.80
37886;DHT22;23726;52.520;13.434;2022-08-03T13:15:41;27.30;41.70
37886;DHT22;23726;52.520;13.434;2022-08-03T13:18:06;27.30;41.80
37886;DHT22;23726;52.520;13.434;2022-08-03T13:20:33;27.30;41.80
37886;DHT22;23726;52.520;13.434;2022-08-03T13:22:58;27.30;41.80
37886;DHT22;23726;52.520;13.434;2022-08-03T13:25:24;27.30;41.80
37886;DHT22;23726;52.520;13.434;2022-08-03T13:27:49;27.30;41.80
37886;DHT22;23726;52.520;13.434;2022-08-03T13:30:17;27.30;41.80
37886;DHT22;23726;52.520;13.434;2022-08-03T13:32:43;27.30;41.80
37886;DHT22;23726;52.520;13.434;2022-08-03T13:35:10;27.30;41.80
37886;DHT22;23726;52.520;13.434;2022-08-03T13:37:36;27.30;41.80
37886;DHT22;23726;52.520;13.434;2022-08-03T13:40:04;27.30;41.80
37886;DHT22;23726;52.520;13.434;2022-08-03T13:42:31;27.30;41.90
37886;DHT22;23726;52.520;13.434;2022-08-03T13:44:58;27.30;41.90
37886;DHT22;23726;52.520;13.434;2022-08-03T13:47:24;27.30;41.90
37886;DHT22;23726;52.520;13.434;2022-08-03T13:49:49;27.30;41.90
37886;DHT22;23726;52.520;13.434;2022-08-03T13:52:16;27.30;41.90
37886;DHT22;23726;52.520;13.434;2022-08-03T13:54:42;27.30;41.90
37886;DHT22;23726;52.520;13.434;2022-08-03T13:57:07;27.30;42.00
37886;DHT22;23726;52.520;13.434;2022-08-03T13:59:35;27.30;42.00
37886;DHT22;23726;52.520;13.434;2022-08-03T14:02:00;27.30;42.00
37886;DHT22;23726;52.520;13.434;2022-08-03T14:04:26;27.30;42.00
37886;DHT22;23726;52.520;13.434;2022-08-03T14:06:51;27.30;42.10
37886;DHT22;23726;52.520;13.434;2022-08-03T14:09:17;27.30;42.10
37886;DHT22;23726;52.520;13.434;2022-08-03T14:11:43;27.30;42.10
37886;DHT22;23726;52.520;13.434;2022-08-03T14:14:10;27.30;42.10
37886;DHT22;23726;52.520;13.434;2022-08-03T14:16:36;27.40;42.20
37886;DHT22;23726;52.520;13.434;2022-08-03T14:19:02;27.40;42.20
37886;DHT22;23726;52.520;13.434;2022-08-03T14:21:28;27.40;42.20
37886;DHT22;23726;52.520;13.434;2022-08-03T14:23:54;27.40;42.20
37886;DHT22;23726;52.520;13.434;2022-08-03T14:26:21;27.40;42.20
37886;DHT22;23726;52.520;13.434;2022-08-03T14:28:46;27.40;42.20
37886;DHT22;23726;52.520;13.434;2022-08-03T14:31:12;27.40;42.30
37886;DHT22;23726;52.520;13.434;2022-08-03T14:33:37;27.40;42.30
37886;DHT22;23726;52.520;13.434;2022-08-03T14:36:03;27.40;42.30
37886;DHT22;23726;52.520;13.434;2022-08-03T14:38:29;27.40;42.40
37886;DHT22;23726;52.520;13.434;2022-08-03T14:40:54;27.40;42.40
37886;DHT22;23726;52.520;13.434;2022-08-03T14:43:20;27.40;42.40
37886;DHT22;23726;52.520;13.434;2022-08-03T14:45:50;27.40;42.40
37886;DHT22;23726;52.520;13.434;2022-08-03T14:48:19;27.40;42.50
37886;DHT22;23726;52.520;13.434;2022-08-03T14:50:45;27.40;42.40
37886;DHT22;23726;52.520;13.434;2022-08-03T14:53:11;27.40;42.40
37886;DHT22;23726;52.520;13.434;2022-08-03T14:55:36;27.40;42.50
37886;DHT22;23726;52.520;13.434;2022-08-03T14:58:02;27.40;42.50
37886;DHT22;23726;52.520;13.434;2022-08-03T15:00:33;27.40;42.50
37886;DHT22;23726;52.520;13.434;2022-08-03T15:02:59;27.40;42.50
37886;DHT22;23726;52.520;13.434;2022-08-03T15:05:24;27.40;42.50
37886;DHT22;23726;52.520;13.434;2022-08-03T15:07:50;27.40;42.50
37886;DHT22;23726;52.520;13.434;2022-08-03T15:10:16;27.40;42.50
37886;DHT22;23726;52.520;13.434;2022-08-03T15:12:42;27.40;42.50
37886;DHT22;23726;52.520;13.434;2022-08-03T15:15:08;27.40;42.50
37886;DHT22;23726;52.520;13.434;2022-08-03T15:17:34;27.40;42.60
37886;DHT22;23726;52.520;13.434;2022-08-03T15:19:59;27.50;42.70
37886;DHT22;23726;52.520;13.434;2022-08-03T15:22:25;27.50;42.80
37886;DHT22;23726;52.520;13.434;2022-08-03T15:24:51;27.50;42.80
37886;DHT22;23726;52.520;13.434;2022-08-03T15:27:16;27.50;42.80
37886;DHT22;23726;52.520;13.434;2022-08-03T15:29:42;27.50;42.90
37886;DHT22;23726;52.520;13.434;2022-08-03T15:32:07;27.50;43.00
37886;DHT22;23726;52.520;13.434;2022-08-03T15:34:33;27.50;43.00
37886;DHT22;23726;52.520;13.434;2022-08-03T15:36:58;27.50;43.00
37886;DHT22;23726;52.520;13.434;2022-08-03T15:39:24;27.50;43.10
37886;DHT22;23726;52.520;13.434;2022-08-03T15:41:49;27.50;43.10
37886;DHT22;23726;52.520;13.434;2022-08-03T15:44:19;27.60;43.10
37886;DHT22;23726;52.520;13.434;2022-08-03T15:46:45;27.60;43.20
37886;DHT22;23726;52.520;13.434;2022-08-03T15:49:10;27.60;43.20
37886;DHT22;23726;52.520;13.434;2022-08-03T15:51:36;27.60;43.20